Time;durP1;ratioP1;P1;durP2;ratioP2;P2;SDS_P1;SDS_P2;PMS_P1;PMS_P2;Temp;Humidity;BMP_temperature;BMP_pressure;BME280_temperature;BME280_humidity;BME280_pressure;Samples;Min_cycle;Max_cycle;Signal;HPM_P1;HPM_P2
2023/03/04 00:02:21;;;;;;;2.40;0.60;;;;;;;;;;4986971;28;20034;-65
2023/03/04 00:04:47;;;;;;;2.47;0.68;;;;;;;;;;4999961;28;20057;-63
2023/03/04 00:07:17;;;;;;;1.70;0.60;;;;;;;;;;4995713;28;20125;-65
2023/03/04 00:09:45;;;;;;;2.22;0.60;;;;;;;;;;5018712;28;20046;-64
2023/03/04 00:12:11;;;;;;;3.50;0.60;;;;;;;;;;5013102;28;20060;-65
2023/03/04 00:14:38;;;;;;;1.70;0.50;;;;;;;;;;5011682;28;20044;-62
2023/03/04 00:17:05;;;;;;;1.45;0.50;;;;;;;;;;5013555;28;20103;-64
2023/03/04 00:19:33;;;;;;;1.73;0.50;;;;;;;;;;5010933;28;20040;-64
2023/03/04 00:22:00;;;;;;;1.65;0.50;;;;;;;;;;5013998;28;20049;-64
2023/03/04 00:24:27;;;;;;;5.45;0.80;;;;;;;;;;5012654;28;20037;-64
2023/03/04 00:26:53;;;;;;;2.90;0.60;;;;;;;;;;5014395;28;21412;-65
2023/03/04 00:29:21;;;;;;;6.85;0.90;;;;;;;;;;5013186;28;20053;-65
2023/03/04 00:31:47;;;;;;;2.10;0.45;;;;;;;;;;5013657;28;20068;-64
2023/03/04 00:34:14;;;;;;;4.55;0.60;;;;;;;;;;5012330;28;20066;-66
2023/03/04 00:36:44;;;;;;;3.10;0.82;;;;;;;;;;5009941;28;20041;-64
2023/03/04 00:39:12;;;;;;;3.42;0.52;;;;;;;;;;5009166;28;20048;-64
2023/03/04 00:41:38;;;;;;;2.88;0.60;;;;;;;;;;5013195;28;20038;-64
2023/03/04 00:44:05;;;;;;;3.35;0.60;;;;;;;;;;5013205;28;20088;-64
2023/03/04 00:46:32;;;;;;;3.05;0.55;;;;;;;;;;5009434;28;20050;-67
2023/03/04 00:48:58;;;;;;;1.17;0.40;;;;;;;;;;5005521;28;20050;-65
2023/03/04 00:51:25;;;;;;;2.33;0.55;;;;;;;;;;5007600;28;20038;-66
2023/03/04 00:53:52;;;;;;;1.98;0.60;;;;;;;;;;5007779;28;20041;-69
2023/03/04 00:56:18;;;;;;;3.78;0.70;;;;;;;;;;5012496;28;20033;-63
2023/03/04 00:58:45;;;;;;;2.45;0.60;;;;;;;;;;5010448;28;20034;-65
2023/03/04 01:01:12;;;;;;;1.50;0.45;;;;;;;;;;5012101;28;20095;-66
2023/03/04 01:03:40;;;;;;;1.75;0.60;;;;;;;;;;5012382;28;20052;-64
2023/03/04 01:06:07;;;;;;;1.25;0.40;;;;;;;;;;5011372;28;20058;-65
2023/03/04 01:08:33;;;;;;;3.03;0.82;;;;;;;;;;5012479;28;20077;-67
2023/03/04 01:11:00;;;;;;;1.63;0.60;;;;;;;;;;5011615;28;20121;-65
2023/03/04 01:13:26;;;;;;;3.80;0.77;;;;;;;;;;5012493;28;20042;-65
2023/03/04 01:15:54;;;;;;;4.88;0.90;;;;;;;;;;5012978;28;20048;-66
2023/03/04 01:18:21;;;;;;;2.25;0.50;;;;;;;;;;5010959;28;20038;-65
2023/03/04 01:20:48;;;;;;;1.70;0.60;;;;;;;;;;5012552;28;20049;-69
2023/03/04 01:23:14;;;;;;;4.45;0.70;;;;;;;;;;5014344;28;20076;-64
2023/03/04 01:25:41;;;;;;;2.83;0.57;;;;;;;;;;5015221;28;20164;-65
2023/03/04 01:28:08;;;;;;;2.30;0.73;;;;;;;;;;5015308;28;20160;-64
2023/03/04 01:30:34;;;;;;;2.00;0.55;;;;;;;;;;5013325;28;20037;-64
2023/03/04 01:33:01;;;;;;;2.13;0.60;;;;;;;;;;5012848;28;20049;-64
2023/03/04 01:35:27;;;;;;;2.75;0.70;;;;;;;;;;5012120;28;20034;-64
2023/03/04 01:37:54;;;;;;;1.67;0.60;;;;;;;;;;5012950;28;20046;-65
2023/03/04 01:40:21;;;;;;;1.85;0.60;;;;;;;;;;5012076;28;20053;-64
2023/03/04 01:42:47;;;;;;;1.73;0.57;;;;;;;;;;5020423;28;20056;-64
2023/03/04 01:45:15;;;;;;;2.63;0.65;;;;;;;;;;5013474;28;20068;-64
2023/03/04 01:47:47;;;;;;;1.23;0.50;;;;;;;;;;5011993;28;20560;-65
2023/03/04 01:50:20;;;;;;;2.47;0.60;;;;;;;;;;5012751;28;20573;-64
2023/03/04 01:52:46;;;;;;;2.75;0.65;;;;;;;;;;5012003;28;20118;-64
2023/03/04 01:55:18;;;;;;;1.15;0.40;;;;;;;;;;5029062;28;20465;-65
2023/03/04 01:57:45;;;;;;;1.75;0.45;;;;;;;;;;5031925;28;20623;-65
2023/03/04 02:00:12;;;;;;;3.70;1.08;;;;;;;;;;5033436;28;20530;-65
2023/03/04 02:02:38;;;;;;;3.33;0.60;;;;;;;;;;5031464;28;20047;-64
2023/03/04 02:05:05;;;;;;;2.58;0.70;;;;;;;;;;5033019;28;20044;-65
2023/03/04 02:07:32;;;;;;;4.63;0.77;;;;;;;;;;5021871;28;20208;-64
2023/03/04 02:09:59;;;;;;;3.17;0.60;;;;;;;;;;5014715;28;20049;-65
2023/03/04 02:12:25;;;;;;;0.95;0.40;;;;;;;;;;5021557;28;20033;-62
2023/03/04 02:14:52;;;;;;;4.53;0.60;;;;;;;;;;5026162;28;20723;-65
2023/03/04 02:17:24;;;;;;;3.78;1.10;;;;;;;;;;5032242;28;20037;-64
2023/03/04 02:19:56;;;;;;;2.08;0.63;;;;;;;;;;5032339;28;20045;-64
2023/03/04 02:22:23;;;;;;;1.55;0.52;;;;;;;;;;5032172;28;20041;-63
2023/03/04 02:24:54;;;;;;;2.22;0.47;;;;;;;;;;5032602;28;20037;-63
2023/03/04 02:27:21;;;;;;;2.13;0.60;;;;;;;;;;5031337;28;20049;-61
2023/03/04 02:29:47;;;;;;;2.28;0.60;;;;;;;;;;5032733;28;20048;-62
2023/03/04 02:32:14;;;;;;;2.75;0.38;;;;;;;;;;5032902;28;20120;-65
2023/03/04 02:34:45;;;;;;;1.33;0.40;;;;;;;;;;5031080;28;20090;-62
2023/03/04 02:37:12;;;;;;;6.03;0.57;;;;;;;;;;5030898;28;20494;-63
2023/03/04 02:39:43;;;;;;;9.45;0.65;;;;;;;;;;5031197;28;20068;-64
2023/03/04 02:42:10;;;;;;;1.10;0.40;;;;;;;;;;5031493;28;20044;-64
2023/03/04 02:44:38;;;;;;;1.45;0.52;;;;;;;;;;5032169;28;20095;-64
2023/03/04 02:47:06;;;;;;;0.82;0.40;;;;;;;;;;5031981;28;20449;-64
2023/03/04 02:49:33;;;;;;;0.98;0.40;;;;;;;;;;5031420;28;20738;-65
2023/03/04 02:52:04;;;;;;;1.35;0.50;;;;;;;;;;5032554;28;20698;-65
2023/03/04 02:54:31;;;;;;;3.95;0.57;;;;;;;;;;5031889;28;20048;-65
2023/03/04 02:56:59;;;;;;;1.45;0.63;;;;;;;;;;5031499;28;20041;-65
2023/03/04 02:59:25;;;;;;;0.75;0.40;;;;;;;;;;5029435;28;20043;-64
2023/03/04 03:01:52;;;;;;;1.88;0.60;;;;;;;;;;5031412;28;20098;-62
2023/03/04 03:04:20;;;;;;;1.88;0.52;;;;;;;;;;5030624;28;20117;-66
2023/03/04 03:06:46;;;;;;;1.40;0.50;;;;;;;;;;5033231;28;20120;-67
2023/03/04 03:09:13;;;;;;;3.05;0.60;;;;;;;;;;5030448;28;20057;-64
2023/03/04 03:11:40;;;;;;;3.10;0.50;;;;;;;;;;5032847;28;20037;-65
2023/03/04 03:14:07;;;;;;;3.42;0.50;;;;;;;;;;5032253;28;20067;-64
2023/03/04 03:16:33;;;;;;;3.33;0.60;;;;;;;;;;5030702;28;20178;-64
2023/03/04 03:19:00;;;;;;;1.58;0.47;;;;;;;;;;5031361;28;20128;-63
2023/03/04 03:21:26;;;;;;;2.55;0.55;;;;;;;;;;5031689;28;20100;-64
2023/03/04 03:23:53;;;;;;;1.05;0.30;;;;;;;;;;5032113;28;20140;-64
2023/03/04 03:26:20;;;;;;;1.13;0.50;;;;;;;;;;5022533;28;20044;-63
2023/03/04 03:28:47;;;;;;;1.92;0.63;;;;;;;;;;5033422;28;20102;-65
2023/03/04 03:31:14;;;;;;;2.15;0.57;;;;;;;;;;5035913;28;20115;-66
2023/03/04 03:33:41;;;;;;;2.33;0.60;;;;;;;;;;5035749;28;20029;-65
2023/03/04 03:36:07;;;;;;;2.17;0.60;;;;;;;;;;5036952;28;21003;-66
2023/03/04 03:38:34;;;;;;;2.72;0.70;;;;;;;;;;5034078;28;20037;-64
2023/03/04 03:41:01;;;;;;;5.03;0.75;;;;;;;;;;5036175;28;20398;-66
2023/03/04 03:43:27;;;;;;;1.05;0.45;;;;;;;;;;5035104;28;20106;-65
2023/03/04 03:45:54;;;;;;;5.95;0.85;;;;;;;;;;5036313;28;20049;-65
2023/03/04 03:48:21;;;;;;;2.60;0.52;;;;;;;;;;5034617;28;20057;-65
2023/03/04 03:50:47;;;;;;;2.15;0.43;;;;;;;;;;5036757;28;20072;-65
2023/03/04 03:53:14;;;;;;;4.10;0.90;;;;;;;;;;5036087;28;20048;-64
2023/03/04 03:55:40;;;;;;;3.55;0.80;;;;;;;;;;5033960;28;20118;-66
2023/03/04 03:58:07;;;;;;;2.53;0.80;;;;;;;;;;5035896;28;20055;-66
2023/03/04 04:00:34;;;;;;;3.42;0.90;;;;;;;;;;5035565;28;20040;-65
2023/03/04 04:03:01;;;;;;;3.13;0.60;;;;;;;;;;5034113;28;20503;-66
2023/03/04 04:05:28;;;;;;;2.58;0.63;;;;;;;;;;5033526;28;20074;-66
2023/03/04 04:07:54;;;;;;;6.15;0.75;;;;;;;;;;5036509;28;20125;-66
2023/03/04 04:10:21;;;;;;;10.88;0.95;;;;;;;;;;5035396;28;20147;-68
2023/03/04 04:12:48;;;;;;;2.95;0.65;;;;;;;;;;5035276;28;20525;-66
2023/03/04 04:15:14;;;;;;;3.00;0.50;;;;;;;;;;5036809;28;20516;-66
2023/03/04 04:17:41;;;;;;;2.35;0.77;;;;;;;;;;5034917;28;20059;-66
2023/03/04 04:20:08;;;;;;;3.17;0.57;;;;;;;;;;5016692;28;20041;-65
2023/03/04 04:22:35;;;;;;;5.38;0.70;;;;;;;;;;5036823;28;20389;-66
2023/03/04 04:25:02;;;;;;;4.97;0.60;;;;;;;;;;5034646;28;20045;-66
2023/03/04 04:27:28;;;;;;;3.72;0.57;;;;;;;;;;5034145;28;20037;-65
2023/03/04 04:29:55;;;;;;;2.20;0.80;;;;;;;;;;5035744;28;20483;-64
2023/03/04 04:32:21;;;;;;;1.58;0.60;;;;;;;;;;5033341;28;20054;-65
2023/03/04 04:34:48;;;;;;;3.05;0.70;;;;;;;;;;5034815;28;20037;-63
2023/03/04 04:37:15;;;;;;;5.93;0.70;;;;;;;;;;5033315;28;20075;-65
2023/03/04 04:39:41;;;;;;;4.60;0.65;;;;;;;;;;5032161;28;20052;-65
2023/03/04 04:42:09;;;;;;;4.68;0.50;;;;;;;;;;5035944;28;20508;-66
2023/03/04 04:44:37;;;;;;;2.70;0.60;;;;;;;;;;5032637;28;20049;-66
2023/03/04 04:47:05;;;;;;;5.43;0.73;;;;;;;;;;5034674;28;20112;-64
2023/03/04 04:49:32;;;;;;;5.85;0.77;;;;;;;;;;5015194;28;20070;-65
2023/03/04 04:51:59;;;;;;;4.05;0.88;;;;;;;;;;5035002;28;20029;-67
2023/03/04 04:54:25;;;;;;;2.25;0.65;;;;;;;;;;5034044;28;20155;-67
2023/03/04 04:56:52;;;;;;;2.30;0.65;;;;;;;;;;5035205;28;20036;-65
2023/03/04 04:59:19;;;;;;;1.58;0.50;;;;;;;;;;5033452;28;20048;-67
2023/03/04 05:01:45;;;;;;;4.43;0.90;;;;;;;;;;5035625;28;20084;-65
2023/03/04 05:04:12;;;;;;;1.88;0.63;;;;;;;;;;5015355;28;20068;-66
2023/03/04 05:06:39;;;;;;;1.48;0.60;;;;;;;;;;5035191;28;20057;-65
2023/03/04 05:09:06;;;;;;;5.13;0.90;;;;;;;;;;5032640;28;20048;-66
2023/03/04 05:11:32;;;;;;;12.65;1.10;;;;;;;;;;5033615;28;20041;-65
2023/03/04 05:13:59;;;;;;;2.00;0.70;;;;;;;;;;5007438;28;20037;-65
2023/03/04 05:16:25;;;;;;;3.42;0.60;;;;;;;;;;5029617;28;20037;-65
2023/03/04 05:18:52;;;;;;;3.60;0.73;;;;;;;;;;5021351;28;20045;-66
2023/03/04 05:21:19;;;;;;;2.75;0.60;;;;;;;;;;5025648;28;20060;-65
2023/03/04 05:23:45;;;;;;;4.78;0.80;;;;;;;;;;5033239;28;20041;-66
2023/03/04 05:26:16;;;;;;;2.85;1.05;;;;;;;;;;5020397;28;20045;-65
2023/03/04 05:28:43;;;;;;;2.53;0.70;;;;;;;;;;5033726;28;20041;-65
2023/03/04 05:31:30;;;;;;;2.30;0.80;;;;;;;;;;5012327;28;20041;-67
2023/03/04 05:33:56;;;;;;;3.15;0.70;;;;;;;;;;5016734;28;20045;-66
2023/03/04 05:36:23;;;;;;;2.42;0.80;;;;;;;;;;5012803;28;20042;-65
2023/03/04 05:38:50;;;;;;;5.40;0.68;;;;;;;;;;5011924;28;20096;-67
2023/03/04 05:41:19;;;;;;;6.90;0.82;;;;;;;;;;5004686;28;20320;-67
2023/03/04 05:43:45;;;;;;;4.07;0.77;;;;;;;;;;4988802;28;20052;-66
2023/03/04 05:46:14;;;;;;;2.17;0.60;;;;;;;;;;5012431;28;20033;-69
2023/03/04 05:48:40;;;;;;;3.97;0.90;;;;;;;;;;5010613;28;21086;-67
2023/03/04 05:51:08;;;;;;;4.05;0.70;;;;;;;;;;5011629;28;20120;-65
2023/03/04 05:53:38;;;;;;;12.82;1.23;;;;;;;;;;4996923;28;20080;-65
2023/03/04 05:56:12;;;;;;;5.53;1.05;;;;;;;;;;5010496;28;20419;-66
2023/03/04 05:58:38;;;;;;;;;;;;;;;;;;5010305;28;20053;-66
2023/03/04 06:01:05;;;;;;;2.33;0.70;;;;;;;;;;5010004;28;19955;-66
2023/03/04 06:03:32;;;;;;;3.08;1.00;;;;;;;;;;5010126;28;20224;-66
2023/03/04 06:05:59;;;;;;;5.47;1.20;;;;;;;;;;5010827;28;20045;-65
2023/03/04 06:08:26;;;;;;;3.00;1.05;;;;;;;;;;5015713;28;20079;-66
2023/03/04 06:10:54;;;;;;;7.68;1.25;;;;;;;;;;5032650;28;20032;-65
2023/03/04 06:13:21;;;;;;;2.58;0.98;;;;;;;;;;5012997;28;20144;-65
2023/03/04 06:15:48;;;;;;;2.22;0.73;;;;;;;;;;5033646;28;20037;-66
2023/03/04 06:18:15;;;;;;;2.28;0.88;;;;;;;;;;5032800;28;20037;-65
2023/03/04 06:20:41;;;;;;;3.17;1.02;;;;;;;;;;5032126;28;20068;-66
2023/03/04 06:23:08;;;;;;;2.45;0.70;;;;;;;;;;5033578;28;20484;-66
2023/03/04 06:25:35;;;;;;;2.63;0.98;;;;;;;;;;5031959;28;20037;-67
2023/03/04 06:28:01;;;;;;;3.80;0.98;;;;;;;;;;5030661;28;20051;-66
2023/03/04 06:30:28;;;;;;;2.75;0.77;;;;;;;;;;5032861;28;20044;-66
2023/03/04 06:32:55;;;;;;;7.22;1.20;;;;;;;;;;5032752;28;20037;-66
2023/03/04 06:35:22;;;;;;;2.78;0.90;;;;;;;;;;5030538;28;20041;-66
2023/03/04 06:37:49;;;;;;;2.45;0.50;;;;;;;;;;5033218;28;20041;-68
2023/03/04 06:40:15;;;;;;;1.08;0.40;;;;;;;;;;5032689;28;20036;-66
2023/03/04 06:42:42;;;;;;;1.17;0.40;;;;;;;;;;5032975;28;20120;-66
2023/03/04 06:45:09;;;;;;;2.38;0.60;;;;;;;;;;5032162;28;20041;-67
2023/03/04 06:47:36;;;;;;;1.80;0.40;;;;;;;;;;5031023;28;20128;-65
2023/03/04 06:50:03;;;;;;;1.23;0.50;;;;;;;;;;5019220;28;20455;-65
2023/03/04 06:52:29;;;;;;;5.72;0.68;;;;;;;;;;5031144;28;20040;-69
2023/03/04 06:54:56;;;;;;;5.53;0.55;;;;;;;;;;5032270;28;20033;-65
2023/03/04 06:57:22;;;;;;;2.45;0.40;;;;;;;;;;5031031;28;20036;-66
2023/03/04 06:59:49;;;;;;;1.98;0.82;;;;;;;;;;5033269;28;20554;-67
2023/03/04 07:02:16;;;;;;;0.73;0.30;;;;;;;;;;5031870;28;20090;-65
2023/03/04 07:04:42;;;;;;;1.33;0.40;;;;;;;;;;5031181;28;20132;-65
2023/03/04 07:07:10;;;;;;;0.93;0.40;;;;;;;;;;5032996;28;20917;-67
2023/03/04 07:09:37;;;;;;;1.13;0.40;;;;;;;;;;5032143;28;20079;-66
2023/03/04 07:12:03;;;;;;;2.25;0.50;;;;;;;;;;5033297;28;20075;-66
2023/03/04 07:14:30;;;;;;;4.40;0.60;;;;;;;;;;5032355;28;20439;-66
2023/03/04 07:16:57;;;;;;;1.13;0.50;;;;;;;;;;5013188;28;20120;-66
2023/03/04 07:19:23;;;;;;;7.80;0.80;;;;;;;;;;5031338;28;20037;-67
2023/03/04 07:21:50;;;;;;;1.08;0.50;;;;;;;;;;5032334;28;20033;-68
2023/03/04 07:24:17;;;;;;;1.13;0.40;;;;;;;;;;5030157;28;20044;-66
2023/03/04 07:26:43;;;;;;;2.03;0.68;;;;;;;;;;5031240;28;20133;-66
2023/03/04 07:29:10;;;;;;;3.78;0.70;;;;;;;;;;5031533;28;20064;-66
2023/03/04 07:31:37;;;;;;;2.80;0.40;;;;;;;;;;5031848;28;20398;-65
2023/03/04 07:34:05;;;;;;;0.43;0.25;;;;;;;;;;5031846;28;20037;-67
2023/03/04 07:36:32;;;;;;;2.55;0.60;;;;;;;;;;5031300;28;20152;-67
2023/03/04 07:38:58;;;;;;;1.13;0.45;;;;;;;;;;5029950;28;20601;-66
2023/03/04 07:41:26;;;;;;;1.50;0.47;;;;;;;;;;5012137;28;20041;-67
2023/03/04 07:43:53;;;;;;;0.20;0.20;;;;;;;;;;5031840;28;20047;-65
2023/03/04 07:46:20;;;;;;;3.80;0.82;;;;;;;;;;5031160;28;20041;-67
2023/03/04 07:48:46;;;;;;;6.65;0.80;;;;;;;;;;5031333;28;20076;-66
2023/03/04 07:51:17;;;;;;;0.45;0.30;;;;;;;;;;5032641;28;20171;-66
2023/03/04 07:53:45;;;;;;;0.95;0.38;;;;;;;;;;5030659;28;20045;-68
2023/03/04 07:56:13;;;;;;;1.38;0.40;;;;;;;;;;5030808;28;20394;-66
2023/03/04 07:58:39;;;;;;;0.93;0.32;;;;;;;;;;5030396;28;20113;-66
2023/03/04 08:01:09;;;;;;;0.73;0.50;;;;;;;;;;5031158;28;20555;-67
2023/03/04 08:03:36;;;;;;;2.00;0.68;;;;;;;;;;5030649;28;20500;-65
2023/03/04 08:06:04;;;;;;;2.28;0.70;;;;;;;;;;5012742;28;20049;-65
2023/03/04 08:08:31;;;;;;;2.75;0.73;;;;;;;;;;5009549;28;20203;-67
2023/03/04 08:10:58;;;;;;;0.55;0.38;;;;;;;;;;5011697;28;20588;-67
2023/03/04 08:13:24;;;;;;;1.42;0.60;;;;;;;;;;5011163;28;20041;-64
2023/03/04 08:15:51;;;;;;;3.55;0.90;;;;;;;;;;5015477;28;20049;-65
2023/03/04 08:18:17;;;;;;;1.75;0.60;;;;;;;;;;5015031;28;20647;-63
2023/03/04 08:20:44;;;;;;;0.80;0.30;;;;;;;;;;5015360;28;20088;-64
2023/03/04 08:23:11;;;;;;;2.65;0.75;;;;;;;;;;5014398;28;20599;-65
2023/03/04 08:25:45;;;;;;;1.13;0.73;;;;;;;;;;5015002;28;20486;-67
2023/03/04 08:28:12;;;;;;;2.08;0.68;;;;;;;;;;5015298;28;20034;-65
2023/03/04 08:30:39;;;;;;;2.25;0.60;;;;;;;;;;5015502;28;20044;-67
2023/03/04 08:33:06;;;;;;;3.33;0.57;;;;;;;;;;5015388;28;20041;-65
2023/03/04 08:35:33;;;;;;;1.02;0.45;;;;;;;;;;5007737;28;20060;-65
2023/03/04 08:37:59;;;;;;;2.50;0.73;;;;;;;;;;5014670;28;20091;-64
2023/03/04 08:40:26;;;;;;;2.95;0.70;;;;;;;;;;5013757;28;20088;-65
2023/03/04 08:42:53;;;;;;;4.43;0.85;;;;;;;;;;5017362;28;21010;-65
2023/03/04 08:45:20;;;;;;;2.47;0.80;;;;;;;;;;5013176;28;20450;-65
2023/03/04 08:47:46;;;;;;;3.03;0.65;;;;;;;;;;5009322;28;20053;-65
2023/03/04 08:50:13;;;;;;;1.63;0.57;;;;;;;;;;5014852;28;20061;-65
2023/03/04 08:52:39;;;;;;;2.05;0.63;;;;;;;;;;5014319;28;20093;-65
2023/03/04 08:55:06;;;;;;;1.55;0.50;;;;;;;;;;5014506;28;20127;-64
2023/03/04 08:57:33;;;;;;;9.95;0.90;;;;;;;;;;5013667;28;20038;-65
2023/03/04 08:59:59;;;;;;;4.63;0.65;;;;;;;;;;5011095;28;20048;-64
2023/03/04 09:02:26;;;;;;;2.67;0.43;;;;;;;;;;5013957;28;20046;-64
2023/03/04 09:04:53;;;;;;;3.00;0.90;;;;;;;;;;5021800;28;20084;-65
2023/03/04 09:07:19;;;;;;;4.95;1.45;;;;;;;;;;5032668;28;20045;-65
2023/03/04 09:09:46;;;;;;;2.92;0.75;;;;;;;;;;5035106;28;20052;-66
2023/03/04 09:12:13;;;;;;;1.80;0.70;;;;;;;;;;5034724;28;20048;-65
2023/03/04 09:14:40;;;;;;;2.53;1.00;;;;;;;;;;5014862;28;20033;-65
2023/03/04 09:17:06;;;;;;;1.75;0.65;;;;;;;;;;5033351;28;20045;-64
2023/03/04 09:19:33;;;;;;;2.45;0.80;;;;;;;;;;5033648;28;20123;-65
2023/03/04 09:22:00;;;;;;;4.78;0.82;;;;;;;;;;5033709;28;20176;-64
2023/03/04 09:24:29;;;;;;;2.08;0.70;;;;;;;;;;5033391;28;20127;-66
2023/03/04 09:26:55;;;;;;;1.92;0.90;;;;;;;;;;5033593;28;20037;-65
2023/03/04 09:29:22;;;;;;;1.08;0.47;;;;;;;;;;5033380;28;20048;-65
2023/03/04 09:31:49;;;;;;;2.58;0.70;;;;;;;;;;5034215;28;20112;-65
2023/03/04 09:34:15;;;;;;;3.65;1.02;;;;;;;;;;5034796;28;20033;-65
2023/03/04 09:36:42;;;;;;;1.60;0.63;;;;;;;;;;5033839;28;20029;-65
2023/03/04 09:39:09;;;;;;;2.60;0.70;;;;;;;;;;5034117;28;20363;-64
2023/03/04 09:41:35;;;;;;;8.63;0.57;;;;;;;;;;5017098;28;20082;-67
2023/03/04 09:44:04;;;;;;;2.03;0.75;;;;;;;;;;5034586;28;20132;-65
2023/03/04 09:46:36;;;;;;;1.95;0.65;;;;;;;;;;5016102;28;20073;-65
2023/03/04 09:49:03;;;;;;;14.35;0.98;;;;;;;;;;5035092;28;20116;-65
2023/03/04 09:51:35;;;;;;;2.63;0.95;;;;;;;;;;5036194;28;20041;-65
2023/03/04 09:54:02;;;;;;;1.65;0.80;;;;;;;;;;5033941;28;20055;-65
2023/03/04 09:56:29;;;;;;;2.72;1.00;;;;;;;;;;5031944;28;21704;-65
2023/03/04 09:59:02;;;;;;;9.63;1.33;;;;;;;;;;5032112;28;20103;-65
2023/03/04 10:01:42;;;;;;;2.00;0.82;;;;;;;;;;5017490;28;20043;-66
2023/03/04 10:04:35;;;;;;;1.98;0.45;;;;;;;;;;5032346;28;20037;-66
2023/03/04 10:07:05;;;;;;;0.70;0.32;;;;;;;;;;5012980;28;20053;-65
2023/03/04 10:09:43;;;;;;;6.20;1.05;;;;;;;;;;5020830;28;20052;-65
2023/03/04 10:12:13;;;;;;;1.02;0.50;;;;;;;;;;5021472;28;20044;-65
2023/03/04 10:14:42;;;;;;;6.20;0.77;;;;;;;;;;5032591;28;20116;-64
2023/03/04 10:17:14;;;;;;;2.20;0.77;;;;;;;;;;5031184;28;20793;-65
2023/03/04 10:19:55;;;;;;;6.20;1.08;;;;;;;;;;5030166;28;20037;-65
2023/03/04 10:22:36;;;;;;;0.90;0.45;;;;;;;;;;5032165;28;20072;-66
2023/03/04 10:25:23;;;;;;;8.50;0.60;;;;;;;;;;5032517;28;20045;-66
2023/03/04 10:28:01;;;;;;;4.63;1.25;;;;;;;;;;5030755;28;20057;-67
2023/03/04 10:30:28;;;;;;;1.00;0.50;;;;;;;;;;5029351;28;20510;-66
2023/03/04 10:32:55;;;;;;;1.20;0.60;;;;;;;;;;5033319;28;20131;-66
2023/03/04 10:35:22;;;;;;;2.45;0.88;;;;;;;;;;5032266;28;20120;-71
2023/03/04 10:37:50;;;;;;;0.50;0.32;;;;;;;;;;5032596;28;20088;-64
2023/03/04 10:40:24;;;;;;;0.68;0.40;;;;;;;;;;5035034;28;20048;-66
2023/03/04 10:42:51;;;;;;;1.23;0.50;;;;;;;;;;5049752;28;20041;-68
2023/03/04 10:45:24;;;;;;;0.47;0.32;;;;;;;;;;5044961;28;20559;-65
2023/03/04 10:47:55;;;;;;;0.80;0.40;;;;;;;;;;5023180;28;20137;-69
2023/03/04 10:50:23;;;;;;;18.73;1.00;;;;;;;;;;5033325;28;20059;-65
2023/03/04 10:52:52;;;;;;;0.55;0.30;;;;;;;;;;5033652;28;20049;-66
2023/03/04 10:55:20;;;;;;;1.70;0.88;;;;;;;;;;5034812;28;20033;-67
2023/03/04 10:57:49;;;;;;;0.28;0.28;;;;;;;;;;5032188;28;20036;-68
2023/03/04 11:00:18;;;;;;;0.43;0.25;;;;;;;;;;5033416;28;20041;-66
2023/03/04 11:02:46;;;;;;;0.20;0.20;;;;;;;;;;5031379;28;20135;-67
2023/03/04 11:05:17;;;;;;;0.98;0.55;;;;;;;;;;5023076;28;20060;-66
2023/03/04 11:07:47;;;;;;;1.17;0.47;;;;;;;;;;5031734;28;20045;-66
2023/03/04 11:10:16;;;;;;;0.32;0.30;;;;;;;;;;5031843;28;20079;-65
2023/03/04 11:12:48;;;;;;;0.77;0.50;;;;;;;;;;5018620;28;20055;-65
2023/03/04 11:15:26;;;;;;;1.20;0.70;;;;;;;;;;5031885;28;20049;-66
2023/03/04 11:17:59;;;;;;;1.80;0.50;;;;;;;;;;5032586;28;20041;-65
2023/03/04 11:20:48;;;;;;;0.13;0.13;;;;;;;;;;5029729;28;20405;-65
2023/03/04 11:23:33;;;;;;;1.10;0.45;;;;;;;;;;5032413;28;20048;-64
2023/03/04 11:26:05;;;;;;;0.35;0.22;;;;;;;;;;5010896;28;20045;-66
2023/03/04 11:28:43;;;;;;;0.88;0.45;;;;;;;;;;5031679;28;20059;-65
2023/03/04 11:31:15;;;;;;;1.90;0.60;;;;;;;;;;5032980;28;20160;-65
2023/03/04 11:33:42;;;;;;;1.42;0.57;;;;;;;;;;5032201;28;20151;-65
2023/03/04 11:36:31;;;;;;;0.75;0.45;;;;;;;;;;5035357;28;20437;-67
2023/03/04 11:38:58;;;;;;;0.70;0.35;;;;;;;;;;5031821;28;20446;-67
2023/03/04 11:41:45;;;;;;;0.45;0.30;;;;;;;;;;5031349;28;20041;-65
2023/03/04 11:44:12;;;;;;;0.70;0.40;;;;;;;;;;5031441;28;20045;-65
2023/03/04 11:46:44;;;;;;;0.55;0.32;;;;;;;;;;5030577;28;20044;-64
2023/03/04 11:49:33;;;;;;;1.52;0.70;;;;;;;;;;5012999;28;20071;-65
2023/03/04 11:52:03;;;;;;;1.88;0.70;;;;;;;;;;4996107;28;20061;-66
2023/03/04 11:54:34;;;;;;;0.82;0.35;;;;;;;;;;5035875;28;20963;-66
2023/03/04 11:57:05;;;;;;;0.25;0.22;;;;;;;;;;5036141;28;20052;-65
2023/03/04 11:59:38;;;;;;;0.30;0.30;;;;;;;;;;5034930;28;20041;-64
2023/03/04 12:02:08;;;;;;;1.15;0.40;;;;;;;;;;5037489;28;20029;-65
2023/03/04 12:04:48;;;;;;;0.35;0.35;;;;;;;;;;5037073;28;20053;-64
2023/03/04 12:07:38;;;;;;;0.20;0.20;;;;;;;;;;5037864;28;20068;-66
2023/03/04 12:10:17;;;;;;;0.25;0.20;;;;;;;;;;5038128;28;21813;-66
2023/03/04 12:13:02;;;;;;;0.70;0.40;;;;;;;;;;5048484;28;20079;-66
2023/03/04 12:15:36;;;;;;;1.15;0.45;;;;;;;;;;5042216;28;20040;-65
2023/03/04 12:18:26;;;;;;;1.35;0.57;;;;;;;;;;5037875;28;20053;-64
2023/03/04 12:21:05;;;;;;;2.03;0.60;;;;;;;;;;5023013;28;20041;-64
2023/03/04 12:23:31;;;;;;;0.70;0.45;;;;;;;;;;5025614;28;20091;-65
2023/03/04 12:26:16;;;;;;;1.42;0.50;;;;;;;;;;5021409;28;20079;-65
2023/03/04 12:28:51;;;;;;;14.80;0.60;;;;;;;;;;5030035;28;20800;-65
2023/03/04 12:31:33;;;;;;;3.78;0.75;;;;;;;;;;5013506;28;20041;-66
2023/03/04 12:34:00;;;;;;;1.50;0.68;;;;;;;;;;5021238;28;20045;-65
2023/03/04 12:36:59;;;;;;;19.20;0.60;;;;;;;;;;5014561;28;20041;-65
2023/03/04 12:39:25;;;;;;;4.78;1.05;;;;;;;;;;5000151;28;20168;-64
2023/03/04 12:41:55;;;;;;;0.20;0.20;;;;;;;;;;5034887;28;20104;-65
2023/03/04 12:44:22;;;;;;;0.52;0.32;;;;;;;;;;5035152;28;20855;-66
2023/03/04 12:47:10;;;;;;;0.28;0.20;;;;;;;;;;5034878;28;20165;-68
2023/03/04 12:49:43;;;;;;;1.00;0.57;;;;;;;;;;5016822;28;20812;-66
2023/03/04 12:52:33;;;;;;;1.27;0.50;;;;;;;;;;5035335;28;20042;-67
2023/03/04 12:55:04;;;;;;;0.43;0.30;;;;;;;;;;5028575;28;20055;-65
2023/03/04 12:57:32;;;;;;;0.35;0.30;;;;;;;;;;5032618;28;20510;-69
2023/03/04 13:00:20;;;;;;;1.70;0.55;;;;;;;;;;5035638;28;20076;-64
2023/03/04 13:03:02;;;;;;;0.95;0.63;;;;;;;;;;5034455;28;20106;-66
2023/03/04 13:05:47;;;;;;;1.75;0.85;;;;;;;;;;5033584;28;20052;-64
2023/03/04 13:08:16;;;;;;;0.43;0.28;;;;;;;;;;5035759;28;20041;-66
2023/03/04 13:10:43;;;;;;;0.30;0.30;;;;;;;;;;5033898;28;20037;-64
2023/03/04 13:13:28;;;;;;;2.80;0.95;;;;;;;;;;5021487;28;20049;-66
2023/03/04 13:16:27;;;;;;;0.65;0.40;;;;;;;;;;5033807;28;20048;-64
2023/03/04 13:19:32;;;;;;;0.93;0.60;;;;;;;;;;4981795;28;20128;-65
2023/03/04 13:21:58;;;;;;;11.52;0.85;;;;;;;;;;5010775;28;20041;-65
2023/03/04 13:24:43;;;;;;;6.68;0.57;;;;;;;;;;5010109;28;20038;-68
2023/03/04 13:27:28;;;;;;;2.17;0.60;;;;;;;;;;5009780;28;20089;-65
2023/03/04 13:29:55;;;;;;;0.40;0.40;;;;;;;;;;5011172;28;20146;-65
2023/03/04 13:32:37;;;;;;;0.65;0.38;;;;;;;;;;5010938;28;20046;-66
2023/03/04 13:35:24;;;;;;;8.83;0.63;;;;;;;;;;5010721;28;20038;-67
2023/03/04 13:37:58;;;;;;;2.88;0.50;;;;;;;;;;5010686;28;20183;-67
2023/03/04 13:40:32;;;;;;;1.10;0.43;;;;;;;;;;5011143;28;20041;-66
2023/03/04 13:43:18;;;;;;;1.60;0.52;;;;;;;;;;5011995;28;20045;-67
2023/03/04 13:45:44;;;;;;;0.73;0.38;;;;;;;;;;5009613;28;20048;-65
2023/03/04 13:48:25;;;;;;;10.30;0.95;;;;;;;;;;5011327;28;20143;-66
2023/03/04 13:50:52;;;;;;;1.70;0.77;;;;;;;;;;5026728;28;20528;-66
2023/03/04 13:53:41;;;;;;;0.82;0.45;;;;;;;;;;5034532;28;20040;-65
2023/03/04 13:56:15;;;;;;;0.82;0.50;;;;;;;;;;5007466;28;20505;-68
2023/03/04 13:58:42;;;;;;;0.30;0.30;;;;;;;;;;5033028;28;20037;-64
2023/03/04 14:01:24;;;;;;;7.95;0.90;;;;;;;;;;5032982;28;20052;-64
2023/03/04 14:03:51;;;;;;;3.50;0.50;;;;;;;;;;5004939;28;20120;-64
2023/03/04 14:06:30;;;;;;;0.50;0.30;;;;;;;;;;5011909;28;20483;-64
2023/03/04 14:08:58;;;;;;;0.73;0.47;;;;;;;;;;5011531;28;20050;-64
2023/03/04 14:11:43;;;;;;;6.85;0.40;;;;;;;;;;4998922;28;20514;-66
2023/03/04 14:14:18;;;;;;;0.88;0.40;;;;;;;;;;5012365;28;20037;-65
2023/03/04 14:16:49;;;;;;;6.45;1.27;;;;;;;;;;5013329;28;20048;-65
2023/03/04 14:19:23;;;;;;;0.88;0.47;;;;;;;;;;5021563;28;20068;-65
2023/03/04 14:21:49;;;;;;;2.08;0.82;;;;;;;;;;5014926;28;20037;-64
2023/03/04 14:24:18;;;;;;;0.77;0.28;;;;;;;;;;5017089;28;20037;-64
2023/03/04 14:26:44;;;;;;;0.43;0.20;;;;;;;;;;5011497;28;20132;-64
2023/03/04 14:29:22;;;;;;;0.17;0.17;;;;;;;;;;5013049;28;20049;-64
2023/03/04 14:31:48;;;;;;;0.38;0.30;;;;;;;;;;5011160;28;20049;-69
2023/03/04 14:34:22;;;;;;;0.38;0.38;;;;;;;;;;5013164;28;20160;-66
2023/03/04 14:36:48;;;;;;;1.73;0.60;;;;;;;;;;5010974;28;20205;-64
2023/03/04 14:39:16;;;;;;;0.20;0.20;;;;;;;;;;5012335;28;20040;-65
2023/03/04 14:41:45;;;;;;;0.25;0.25;;;;;;;;;;5012194;28;20073;-64
2023/03/04 14:44:14;;;;;;;0.80;0.35;;;;;;;;;;5008812;28;20037;-66
2023/03/04 14:46:44;;;;;;;0.30;0.30;;;;;;;;;;5018299;28;20045;-64
2023/03/04 14:49:11;;;;;;;4.75;0.90;;;;;;;;;;5015652;28;20057;-65
2023/03/04 14:51:51;;;;;;;1.50;0.43;;;;;;;;;;5012516;28;20042;-64
2023/03/04 14:54:29;;;;;;;3.25;0.82;;;;;;;;;;5012240;28;20041;-65
2023/03/04 14:56:56;;;;;;;2.53;0.70;;;;;;;;;;5011754;28;20041;-66
2023/03/04 14:59:32;;;;;;;3.80;0.80;;;;;;;;;;5010711;28;20045;-66